Chalmers, Indiana
Current Conditions -  °F | °C
As of 11:55 AM on Tuesday 27 Jan 2015 (Local Time) from KMCX Reporting Station
Overcast Overcast  
Wind Chill: 19°   Ceiling: 5000
Heat Index: 25°   Visibility: 10mi
Dew Point: 13°   Wind: 5mph
Humidity: 62%   Direction: 100°E
Pressure: 30.14"   Gusts: NA
Location:  40.66°N, 86.87°W
Report Text: KMCX 271655Z AUTO 10004KT 10SM OVC050 M04/M10 A3014 RMK AO2 T10401104
Loading
Personal Weather Stations






























Interactive Weather Map New forecast layout! Learn more

10-Day Weather Forecast

Advertisements
Track Severe Weather on mobile